sensor_id;sensor_type;location;lat;lon;timestamp;P1;durP1;ratioP1;P2;durP2;ratioP2
69030;SDS011;56083;48.774;8.942;2023-07-29T00:01:51;11.23;;;2.67;;
69030;SDS011;56083;48.774;8.942;2023-07-29T00:04:19;10.10;;;2.85;;
69030;SDS011;56083;48.774;8.942;2023-07-29T00:06:45;9.30;;;2.58;;
69030;SDS011;56083;48.774;8.942;2023-07-29T00:09:11;14.13;;;2.97;;
69030;SDS011;56083;48.774;8.942;2023-07-29T00:11:37;13.98;;;3.10;;
69030;SDS011;56083;48.774;8.942;2023-07-29T00:14:03;5.18;;;2.30;;
69030;SDS011;56083;48.774;8.942;2023-07-29T00:16:29;8.07;;;2.70;;
69030;SDS011;56083;48.774;8.942;2023-07-29T00:18:54;9.70;;;2.70;;
69030;SDS011;56083;48.774;8.942;2023-07-29T00:21:20;10.07;;;2.60;;
69030;SDS011;56083;48.774;8.942;2023-07-29T00:23:46;8.93;;;2.70;;
69030;SDS011;56083;48.774;8.942;2023-07-29T00:26:11;7.75;;;2.63;;
69030;SDS011;56083;48.774;8.942;2023-07-29T00:28:37;6.63;;;2.35;;
69030;SDS011;56083;48.774;8.942;2023-07-29T00:31:02;12.77;;;3.03;;
69030;SDS011;56083;48.774;8.942;2023-07-29T00:33:28;8.07;;;2.80;;
69030;SDS011;56083;48.774;8.942;2023-07-29T00:35:54;11.50;;;2.63;;
69030;SDS011;56083;48.774;8.942;2023-07-29T00:38:19;8.00;;;2.88;;
69030;SDS011;56083;48.774;8.942;2023-07-29T00:40:45;10.27;;;3.42;;
69030;SDS011;56083;48.774;8.942;2023-07-29T00:43:11;10.00;;;3.00;;
69030;SDS011;56083;48.774;8.942;2023-07-29T00:45:36;8.55;;;3.10;;
69030;SDS011;56083;48.774;8.942;2023-07-29T00:48:03;9.45;;;3.00;;
69030;SDS011;56083;48.774;8.942;2023-07-29T00:50:29;6.97;;;2.80;;
69030;SDS011;56083;48.774;8.942;2023-07-29T00:52:56;11.95;;;3.03;;
69030;SDS011;56083;48.774;8.942;2023-07-29T00:55:22;6.75;;;2.78;;
69030;SDS011;56083;48.774;8.942;2023-07-29T00:57:48;8.82;;;2.53;;
69030;SDS011;56083;48.774;8.942;2023-07-29T01:00:16;8.40;;;3.00;;
69030;SDS011;56083;48.774;8.942;2023-07-29T01:02:42;11.00;;;3.10;;
69030;SDS011;56083;48.774;8.942;2023-07-29T01:05:08;12.30;;;3.08;;
69030;SDS011;56083;48.774;8.942;2023-07-29T01:10:19;9.60;;;2.63;;
69030;SDS011;56083;48.774;8.942;2023-07-29T01:13:13;14.00;;;3.03;;
69030;SDS011;56083;48.774;8.942;2023-07-29T01:16:06;9.35;;;2.83;;
69030;SDS011;56083;48.774;8.942;2023-07-29T01:18:40;10.60;;;3.00;;
69030;SDS011;56083;48.774;8.942;2023-07-29T01:21:08;13.57;;;2.58;;
69030;SDS011;56083;48.774;8.942;2023-07-29T01:23:36;8.40;;;3.13;;
69030;SDS011;56083;48.774;8.942;2023-07-29T01:26:02;6.68;;;2.63;;
69030;SDS011;56083;48.774;8.942;2023-07-29T01:28:28;9.55;;;2.90;;
69030;SDS011;56083;48.774;8.942;2023-07-29T01:30:57;15.95;;;3.15;;
69030;SDS011;56083;48.774;8.942;2023-07-29T01:33:30;10.23;;;3.07;;
69030;SDS011;56083;48.774;8.942;2023-07-29T01:36:07;10.18;;;3.08;;
69030;SDS011;56083;48.774;8.942;2023-07-29T01:38:38;5.88;;;2.83;;
69030;SDS011;56083;48.774;8.942;2023-07-29T01:41:06;8.18;;;2.90;;
69030;SDS011;56083;48.774;8.942;2023-07-29T01:43:33;9.88;;;3.00;;
69030;SDS011;56083;48.774;8.942;2023-07-29T01:46:02;15.13;;;2.80;;
69030;SDS011;56083;48.774;8.942;2023-07-29T01:48:28;9.88;;;3.20;;
69030;SDS011;56083;48.774;8.942;2023-07-29T01:50:55;25.42;;;3.50;;
69030;SDS011;56083;48.774;8.942;2023-07-29T01:53:21;11.38;;;3.42;;
69030;SDS011;56083;48.774;8.942;2023-07-29T01:55:46;8.45;;;3.10;;
69030;SDS011;56083;48.774;8.942;2023-07-29T01:58:12;9.32;;;3.20;;
69030;SDS011;56083;48.774;8.942;2023-07-29T02:00:39;7.43;;;3.10;;
69030;SDS011;56083;48.774;8.942;2023-07-29T02:03:05;9.63;;;3.13;;
69030;SDS011;56083;48.774;8.942;2023-07-29T02:05:30;14.20;;;3.25;;
69030;SDS011;56083;48.774;8.942;2023-07-29T02:07:56;7.90;;;2.92;;
69030;SDS011;56083;48.774;8.942;2023-07-29T02:10:21;8.10;;;3.10;;
69030;SDS011;56083;48.774;8.942;2023-07-29T02:12:47;7.43;;;2.95;;
69030;SDS011;56083;48.774;8.942;2023-07-29T02:15:13;8.68;;;2.92;;
69030;SDS011;56083;48.774;8.942;2023-07-29T02:17:40;9.73;;;3.10;;
69030;SDS011;56083;48.774;8.942;2023-07-29T02:20:07;5.97;;;3.25;;
69030;SDS011;56083;48.774;8.942;2023-07-29T02:22:33;9.77;;;3.38;;
69030;SDS011;56083;48.774;8.942;2023-07-29T02:24:59;10.48;;;3.30;;
69030;SDS011;56083;48.774;8.942;2023-07-29T02:27:25;13.40;;;3.78;;
69030;SDS011;56083;48.774;8.942;2023-07-29T02:29:52;11.88;;;3.78;;
69030;SDS011;56083;48.774;8.942;2023-07-29T02:32:18;7.07;;;3.80;;
69030;SDS011;56083;48.774;8.942;2023-07-29T02:34:44;12.73;;;3.63;;
69030;SDS011;56083;48.774;8.942;2023-07-29T02:37:10;8.48;;;3.20;;
69030;SDS011;56083;48.774;8.942;2023-07-29T02:39:36;14.48;;;3.60;;
69030;SDS011;56083;48.774;8.942;2023-07-29T02:42:02;13.23;;;3.60;;
69030;SDS011;56083;48.774;8.942;2023-07-29T02:44:28;9.60;;;3.90;;
69030;SDS011;56083;48.774;8.942;2023-07-29T02:46:53;12.10;;;3.70;;
69030;SDS011;56083;48.774;8.942;2023-07-29T02:49:21;8.70;;;3.70;;
69030;SDS011;56083;48.774;8.942;2023-07-29T02:51:47;8.30;;;3.63;;
69030;SDS011;56083;48.774;8.942;2023-07-29T02:54:12;10.75;;;3.65;;
69030;SDS011;56083;48.774;8.942;2023-07-29T02:56:38;7.32;;;3.40;;
69030;SDS011;56083;48.774;8.942;2023-07-29T02:59:04;7.45;;;3.05;;
69030;SDS011;56083;48.774;8.942;2023-07-29T03:01:30;7.07;;;3.40;;
69030;SDS011;56083;48.774;8.942;2023-07-29T03:03:55;11.27;;;3.72;;
69030;SDS011;56083;48.774;8.942;2023-07-29T03:06:21;8.45;;;3.60;;
69030;SDS011;56083;48.774;8.942;2023-07-29T03:08:47;10.95;;;3.90;;
69030;SDS011;56083;48.774;8.942;2023-07-29T03:11:13;11.95;;;3.70;;
69030;SDS011;56083;48.774;8.942;2023-07-29T03:13:39;8.30;;;3.42;;
69030;SDS011;56083;48.774;8.942;2023-07-29T03:18:35;11.60;;;3.63;;
69030;SDS011;56083;48.774;8.942;2023-07-29T03:21:01;7.93;;;3.20;;
69030;SDS011;56083;48.774;8.942;2023-07-29T03:23:28;10.38;;;3.38;;
69030;SDS011;56083;48.774;8.942;2023-07-29T03:25:55;8.25;;;3.42;;
69030;SDS011;56083;48.774;8.942;2023-07-29T03:28:21;7.88;;;3.42;;
69030;SDS011;56083;48.774;8.942;2023-07-29T03:30:48;8.98;;;3.67;;
69030;SDS011;56083;48.774;8.942;2023-07-29T03:33:14;8.82;;;3.67;;
69030;SDS011;56083;48.774;8.942;2023-07-29T03:35:39;7.43;;;3.80;;
69030;SDS011;56083;48.774;8.942;2023-07-29T03:38:09;10.60;;;3.33;;
69030;SDS011;56083;48.774;8.942;2023-07-29T03:40:35;11.70;;;4.05;;
69030;SDS011;56083;48.774;8.942;2023-07-29T03:43:00;8.90;;;4.30;;
69030;SDS011;56083;48.774;8.942;2023-07-29T03:45:26;8.95;;;4.10;;
69030;SDS011;56083;48.774;8.942;2023-07-29T03:47:51;9.30;;;3.63;;
69030;SDS011;56083;48.774;8.942;2023-07-29T03:50:17;15.48;;;4.13;;
69030;SDS011;56083;48.774;8.942;2023-07-29T03:52:43;8.82;;;4.40;;
69030;SDS011;56083;48.774;8.942;2023-07-29T03:55:08;15.75;;;4.43;;
69030;SDS011;56083;48.774;8.942;2023-07-29T03:57:34;9.98;;;4.13;;
69030;SDS011;56083;48.774;8.942;2023-07-29T03:59:59;12.10;;;4.10;;
69030;SDS011;56083;48.774;8.942;2023-07-29T04:02:25;10.80;;;4.57;;
69030;SDS011;56083;48.774;8.942;2023-07-29T04:04:51;12.18;;;4.28;;
69030;SDS011;56083;48.774;8.942;2023-07-29T04:07:16;15.38;;;4.22;;
69030;SDS011;56083;48.774;8.942;2023-07-29T04:09:42;12.43;;;3.80;;
69030;SDS011;56083;48.774;8.942;2023-07-29T04:12:08;7.35;;;3.90;;
69030;SDS011;56083;48.774;8.942;2023-07-29T04:14:34;11.48;;;3.85;;
69030;SDS011;56083;48.774;8.942;2023-07-29T04:17:00;12.32;;;5.35;;
69030;SDS011;56083;48.774;8.942;2023-07-29T04:19:28;19.45;;;4.90;;
69030;SDS011;56083;48.774;8.942;2023-07-29T04:21:54;11.43;;;4.43;;
69030;SDS011;56083;48.774;8.942;2023-07-29T04:24:19;14.00;;;5.45;;
69030;SDS011;56083;48.774;8.942;2023-07-29T04:26:48;15.30;;;4.97;;
69030;SDS011;56083;48.774;8.942;2023-07-29T04:29:13;13.82;;;4.68;;
69030;SDS011;56083;48.774;8.942;2023-07-29T04:31:39;12.23;;;4.75;;
69030;SDS011;56083;48.774;8.942;2023-07-29T04:34:05;11.77;;;4.40;;
69030;SDS011;56083;48.774;8.942;2023-07-29T04:36:30;10.05;;;4.63;;
69030;SDS011;56083;48.774;8.942;2023-07-29T04:38:56;12.75;;;4.45;;
69030;SDS011;56083;48.774;8.942;2023-07-29T04:41:21;12.27;;;4.60;;
69030;SDS011;56083;48.774;8.942;2023-07-29T04:43:47;10.82;;;4.43;;
69030;SDS011;56083;48.774;8.942;2023-07-29T04:46:14;12.27;;;4.22;;
69030;SDS011;56083;48.774;8.942;2023-07-29T04:48:40;9.50;;;4.20;;
69030;SDS011;56083;48.774;8.942;2023-07-29T04:51:06;9.80;;;3.97;;
69030;SDS011;56083;48.774;8.942;2023-07-29T04:53:31;7.72;;;4.10;;
69030;SDS011;56083;48.774;8.942;2023-07-29T04:55:58;11.93;;;3.88;;
69030;SDS011;56083;48.774;8.942;2023-07-29T04:58:24;16.08;;;4.43;;
69030;SDS011;56083;48.774;8.942;2023-07-29T05:00:49;15.55;;;4.63;;
69030;SDS011;56083;48.774;8.942;2023-07-29T05:03:15;8.48;;;3.42;;
69030;SDS011;56083;48.774;8.942;2023-07-29T05:05:41;11.93;;;4.30;;
69030;SDS011;56083;48.774;8.942;2023-07-29T05:08:06;9.75;;;3.53;;
69030;SDS011;56083;48.774;8.942;2023-07-29T05:10:32;7.50;;;3.45;;
69030;SDS011;56083;48.774;8.942;2023-07-29T05:12:59;7.45;;;3.58;;
69030;SDS011;56083;48.774;8.942;2023-07-29T05:15:25;8.70;;;3.22;;
69030;SDS011;56083;48.774;8.942;2023-07-29T05:17:50;8.88;;;3.20;;
69030;SDS011;56083;48.774;8.942;2023-07-29T05:20:16;5.13;;;2.95;;
69030;SDS011;56083;48.774;8.942;2023-07-29T05:22:41;6.50;;;2.97;;
69030;SDS011;56083;48.774;8.942;2023-07-29T05:25:07;8.70;;;3.42;;
69030;SDS011;56083;48.774;8.942;2023-07-29T05:27:33;8.43;;;3.20;;
69030;SDS011;56083;48.774;8.942;2023-07-29T05:29:58;5.78;;;3.03;;
69030;SDS011;56083;48.774;8.942;2023-07-29T05:32:24;9.15;;;2.78;;
69030;SDS011;56083;48.774;8.942;2023-07-29T05:34:50;4.43;;;2.80;;
69030;SDS011;56083;48.774;8.942;2023-07-29T05:37:16;5.45;;;2.83;;
69030;SDS011;56083;48.774;8.942;2023-07-29T05:39:41;5.72;;;2.78;;
69030;SDS011;56083;48.774;8.942;2023-07-29T05:42:07;6.93;;;2.70;;
69030;SDS011;56083;48.774;8.942;2023-07-29T05:44:33;6.53;;;2.92;;
69030;SDS011;56083;48.774;8.942;2023-07-29T05:46:58;12.15;;;3.20;;
69030;SDS011;56083;48.774;8.942;2023-07-29T05:49:24;6.68;;;2.65;;
69030;SDS011;56083;48.774;8.942;2023-07-29T05:51:49;2.70;;;2.10;;
69030;SDS011;56083;48.774;8.942;2023-07-29T05:54:17;3.78;;;1.73;;
69030;SDS011;56083;48.774;8.942;2023-07-29T05:56:44;7.05;;;2.30;;
69030;SDS011;56083;48.774;8.942;2023-07-29T05:59:10;9.40;;;2.00;;
69030;SDS011;56083;48.774;8.942;2023-07-29T06:01:36;9.02;;;2.20;;
69030;SDS011;56083;48.774;8.942;2023-07-29T06:04:02;3.28;;;1.77;;
69030;SDS011;56083;48.774;8.942;2023-07-29T06:06:28;4.40;;;1.80;;
69030;SDS011;56083;48.774;8.942;2023-07-29T06:08:55;3.78;;;1.55;;
69030;SDS011;56083;48.774;8.942;2023-07-29T06:11:21;5.45;;;1.33;;
69030;SDS011;56083;48.774;8.942;2023-07-29T06:13:46;5.18;;;1.50;;
69030;SDS011;56083;48.774;8.942;2023-07-29T06:16:16;3.28;;;1.38;;
69030;SDS011;56083;48.774;8.942;2023-07-29T06:18:43;1.35;;;1.13;;
69030;SDS011;56083;48.774;8.942;2023-07-29T06:21:18;3.05;;;1.30;;
69030;SDS011;56083;48.774;8.942;2023-07-29T06:23:45;4.88;;;1.40;;
69030;SDS011;56083;48.774;8.942;2023-07-29T06:26:12;4.22;;;1.38;;
69030;SDS011;56083;48.774;8.942;2023-07-29T06:28:40;6.25;;;1.52;;
69030;SDS011;56083;48.774;8.942;2023-07-29T06:31:06;2.10;;;1.30;;
69030;SDS011;56083;48.774;8.942;2023-07-29T06:33:31;6.05;;;1.40;;
69030;SDS011;56083;48.774;8.942;2023-07-29T06:35:57;4.68;;;1.40;;
69030;SDS011;56083;48.774;8.942;2023-07-29T06:38:23;5.63;;;1.63;;
69030;SDS011;56083;48.774;8.942;2023-07-29T06:40:48;6.32;;;1.60;;
69030;SDS011;56083;48.774;8.942;2023-07-29T06:43:14;3.85;;;1.38;;
69030;SDS011;56083;48.774;8.942;2023-07-29T06:45:42;3.08;;;1.85;;
69030;SDS011;56083;48.774;8.942;2023-07-29T06:48:08;11.18;;;1.70;;
69030;SDS011;56083;48.774;8.942;2023-07-29T06:50:33;5.28;;;1.65;;
69030;SDS011;56083;48.774;8.942;2023-07-29T06:53:03;3.53;;;1.48;;
69030;SDS011;56083;48.774;8.942;2023-07-29T06:55:31;2.88;;;1.40;;
69030;SDS011;56083;48.774;8.942;2023-07-29T06:58:00;2.92;;;1.60;;
69030;SDS011;56083;48.774;8.942;2023-07-29T07:00:27;3.63;;;1.85;;
69030;SDS011;56083;48.774;8.942;2023-07-29T07:02:53;3.65;;;1.50;;
69030;SDS011;56083;48.774;8.942;2023-07-29T07:05:18;4.75;;;1.50;;
69030;SDS011;56083;48.774;8.942;2023-07-29T07:07:47;2.35;;;1.35;;
69030;SDS011;56083;48.774;8.942;2023-07-29T07:10:13;4.15;;;1.63;;
69030;SDS011;56083;48.774;8.942;2023-07-29T07:12:40;7.57;;;2.00;;
69030;SDS011;56083;48.774;8.942;2023-07-29T07:15:05;2.80;;;1.55;;
69030;SDS011;56083;48.774;8.942;2023-07-29T07:17:38;2.10;;;1.80;;
69030;SDS011;56083;48.774;8.942;2023-07-29T07:20:07;2.50;;;1.58;;
69030;SDS011;56083;48.774;8.942;2023-07-29T07:22:33;2.95;;;1.40;;
69030;SDS011;56083;48.774;8.942;2023-07-29T07:24:59;6.53;;;1.35;;
69030;SDS011;56083;48.774;8.942;2023-07-29T07:27:24;3.90;;;1.40;;
69030;SDS011;56083;48.774;8.942;2023-07-29T07:29:50;2.38;;;1.50;;
69030;SDS011;56083;48.774;8.942;2023-07-29T07:32:15;2.72;;;1.30;;
69030;SDS011;56083;48.774;8.942;2023-07-29T07:34:41;2.35;;;1.30;;
69030;SDS011;56083;48.774;8.942;2023-07-29T07:37:06;2.35;;;1.17;;
69030;SDS011;56083;48.774;8.942;2023-07-29T07:39:32;3.22;;;1.50;;
69030;SDS011;56083;48.774;8.942;2023-07-29T07:41:58;2.20;;;1.48;;
69030;SDS011;56083;48.774;8.942;2023-07-29T07:44:23;1.77;;;1.30;;
69030;SDS011;56083;48.774;8.942;2023-07-29T07:46:51;1.60;;;1.20;;
69030;SDS011;56083;48.774;8.942;2023-07-29T07:49:17;2.92;;;1.17;;
69030;SDS011;56083;48.774;8.942;2023-07-29T07:51:43;2.42;;;1.10;;
69030;SDS011;56083;48.774;8.942;2023-07-29T07:54:09;1.45;;;0.88;;
69030;SDS011;56083;48.774;8.942;2023-07-29T07:56:34;2.13;;;0.80;;
69030;SDS011;56083;48.774;8.942;2023-07-29T07:59:00;3.50;;;0.93;;
69030;SDS011;56083;48.774;8.942;2023-07-29T08:01:26;4.43;;;1.10;;
69030;SDS011;56083;48.774;8.942;2023-07-29T08:03:51;1.40;;;0.90;;
69030;SDS011;56083;48.774;8.942;2023-07-29T08:06:17;3.40;;;0.88;;
69030;SDS011;56083;48.774;8.942;2023-07-29T08:08:42;1.48;;;0.65;;
69030;SDS011;56083;48.774;8.942;2023-07-29T08:11:08;2.05;;;0.90;;
69030;SDS011;56083;48.774;8.942;2023-07-29T08:13:33;3.15;;;0.93;;
69030;SDS011;56083;48.774;8.942;2023-07-29T08:15:59;3.30;;;1.00;;
69030;SDS011;56083;48.774;8.942;2023-07-29T08:18:25;2.85;;;1.17;;
69030;SDS011;56083;48.774;8.942;2023-07-29T08:20:58;1.42;;;0.90;;
69030;SDS011;56083;48.774;8.942;2023-07-29T08:23:28;2.97;;;1.10;;
69030;SDS011;56083;48.774;8.942;2023-07-29T08:26:00;3.42;;;1.00;;
69030;SDS011;56083;48.774;8.942;2023-07-29T08:28:34;2.33;;;0.93;;
69030;SDS011;56083;48.774;8.942;2023-07-29T08:31:01;4.47;;;1.48;;
69030;SDS011;56083;48.774;8.942;2023-07-29T08:33:27;3.25;;;1.33;;
69030;SDS011;56083;48.774;8.942;2023-07-29T08:35:53;2.95;;;1.70;;
69030;SDS011;56083;48.774;8.942;2023-07-29T08:38:19;3.97;;;1.25;;
69030;SDS011;56083;48.774;8.942;2023-07-29T08:40:48;5.18;;;1.50;;
69030;SDS011;56083;48.774;8.942;2023-07-29T08:43:19;3.75;;;1.00;;
69030;SDS011;56083;48.774;8.942;2023-07-29T08:45:49;2.35;;;1.02;;
69030;SDS011;56083;48.774;8.942;2023-07-29T08:48:18;1.83;;;1.10;;
69030;SDS011;56083;48.774;8.942;2023-07-29T08:50:50;2.33;;;0.90;;
69030;SDS011;56083;48.774;8.942;2023-07-29T08:53:17;2.55;;;0.90;;
69030;SDS011;56083;48.774;8.942;2023-07-29T08:55:43;3.20;;;0.90;;
69030;SDS011;56083;48.774;8.942;2023-07-29T08:58:09;3.60;;;1.00;;
69030;SDS011;56083;48.774;8.942;2023-07-29T09:00:36;2.65;;;0.90;;
69030;SDS011;56083;48.774;8.942;2023-07-29T09:03:02;0.75;;;0.75;;
69030;SDS011;56083;48.774;8.942;2023-07-29T09:05:32;2.97;;;1.00;;
69030;SDS011;56083;48.774;8.942;2023-07-29T09:07:59;2.88;;;0.80;;
69030;SDS011;56083;48.774;8.942;2023-07-29T09:10:27;1.25;;;0.90;;
69030;SDS011;56083;48.774;8.942;2023-07-29T09:12:52;4.72;;;0.98;;
69030;SDS011;56083;48.774;8.942;2023-07-29T09:15:36;1.52;;;1.00;;
69030;SDS011;56083;48.774;8.942;2023-07-29T09:18:09;1.60;;;0.93;;
69030;SDS011;56083;48.774;8.942;2023-07-29T09:20:42;5.38;;;0.90;;
69030;SDS011;56083;48.774;8.942;2023-07-29T09:23:08;1.42;;;0.98;;
69030;SDS011;56083;48.774;8.942;2023-07-29T09:25:35;3.15;;;1.40;;
69030;SDS011;56083;48.774;8.942;2023-07-29T09:28:02;6.25;;;3.17;;
69030;SDS011;56083;48.774;8.942;2023-07-29T09:30:39;2.55;;;1.10;;
69030;SDS011;56083;48.774;8.942;2023-07-29T09:33:07;2.38;;;1.05;;
69030;SDS011;56083;48.774;8.942;2023-07-29T09:35:34;3.45;;;1.10;;
69030;SDS011;56083;48.774;8.942;2023-07-29T09:38:01;3.92;;;1.08;;
69030;SDS011;56083;48.774;8.942;2023-07-29T09:40:27;2.08;;;1.15;;
69030;SDS011;56083;48.774;8.942;2023-07-29T09:43:01;3.58;;;1.08;;
69030;SDS011;56083;48.774;8.942;2023-07-29T09:45:27;2.78;;;1.10;;
69030;SDS011;56083;48.774;8.942;2023-07-29T09:47:53;2.67;;;1.00;;
69030;SDS011;56083;48.774;8.942;2023-07-29T09:50:26;1.65;;;1.20;;
69030;SDS011;56083;48.774;8.942;2023-07-29T09:52:52;3.63;;;1.17;;
69030;SDS011;56083;48.774;8.942;2023-07-29T09:55:19;5.57;;;1.20;;
69030;SDS011;56083;48.774;8.942;2023-07-29T09:57:48;5.15;;;1.23;;
69030;SDS011;56083;48.774;8.942;2023-07-29T10:00:22;1.92;;;1.17;;
69030;SDS011;56083;48.774;8.942;2023-07-29T10:02:48;2.42;;;1.10;;
69030;SDS011;56083;48.774;8.942;2023-07-29T10:05:15;1.85;;;1.20;;
69030;SDS011;56083;48.774;8.942;2023-07-29T10:07:41;3.20;;;1.30;;
69030;SDS011;56083;48.774;8.942;2023-07-29T10:10:07;6.35;;;1.50;;
69030;SDS011;56083;48.774;8.942;2023-07-29T10:12:34;2.55;;;1.30;;
69030;SDS011;56083;48.774;8.942;2023-07-29T10:15:04;2.20;;;1.33;;
69030;SDS011;56083;48.774;8.942;2023-07-29T10:17:35;2.13;;;0.95;;
69030;SDS011;56083;48.774;8.942;2023-07-29T10:20:06;2.17;;;1.02;;
69030;SDS011;56083;48.774;8.942;2023-07-29T10:22:38;2.33;;;1.20;;
69030;SDS011;56083;48.774;8.942;2023-07-29T10:25:09;3.22;;;1.05;;
69030;SDS011;56083;48.774;8.942;2023-07-29T10:27:47;4.03;;;1.20;;
69030;SDS011;56083;48.774;8.942;2023-07-29T10:30:14;2.70;;;0.90;;
69030;SDS011;56083;48.774;8.942;2023-07-29T10:32:43;2.28;;;0.95;;
69030;SDS011;56083;48.774;8.942;2023-07-29T10:35:11;1.83;;;0.98;;
69030;SDS011;56083;48.774;8.942;2023-07-29T10:37:37;1.15;;;1.00;;
69030;SDS011;56083;48.774;8.942;2023-07-29T10:40:05;2.20;;;0.93;;
69030;SDS011;56083;48.774;8.942;2023-07-29T10:42:32;3.28;;;0.90;;
69030;SDS011;56083;48.774;8.942;2023-07-29T10:44:58;1.23;;;0.98;;
69030;SDS011;56083;48.774;8.942;2023-07-29T10:47:27;1.60;;;0.88;;
69030;SDS011;56083;48.774;8.942;2023-07-29T10:49:57;2.20;;;1.00;;
69030;SDS011;56083;48.774;8.942;2023-07-29T10:52:42;1.85;;;1.15;;
69030;SDS011;56083;48.774;8.942;2023-07-29T10:57:51;3.45;;;1.10;;
69030;SDS011;56083;48.774;8.942;2023-07-29T11:00:19;1.67;;;1.00;;
69030;SDS011;56083;48.774;8.942;2023-07-29T11:03:09;5.38;;;1.52;;
69030;SDS011;56083;48.774;8.942;2023-07-29T11:08:28;3.05;;;1.00;;
69030;SDS011;56083;48.774;8.942;2023-07-29T11:11:07;1.75;;;1.02;;
69030;SDS011;56083;48.774;8.942;2023-07-29T11:13:37;1.35;;;0.90;;
69030;SDS011;56083;48.774;8.942;2023-07-29T11:16:04;2.85;;;1.13;;
69030;SDS011;56083;48.774;8.942;2023-07-29T11:18:31;1.88;;;0.95;;
69030;SDS011;56083;48.774;8.942;2023-07-29T11:20:58;3.50;;;1.30;;
69030;SDS011;56083;48.774;8.942;2023-07-29T11:23:32;2.17;;;1.20;;
69030;SDS011;56083;48.774;8.942;2023-07-29T11:26:00;2.28;;;1.38;;
69030;SDS011;56083;48.774;8.942;2023-07-29T11:28:26;1.88;;;1.25;;
69030;SDS011;56083;48.774;8.942;2023-07-29T11:30:53;0.82;;;0.80;;
69030;SDS011;56083;48.774;8.942;2023-07-29T11:33:26;2.47;;;1.00;;
69030;SDS011;56083;48.774;8.942;2023-07-29T11:35:53;1.42;;;1.02;;
69030;SDS011;56083;48.774;8.942;2023-07-29T11:38:20;1.08;;;0.98;;
69030;SDS011;56083;48.774;8.942;2023-07-29T11:40:59;4.35;;;0.95;;
69030;SDS011;56083;48.774;8.942;2023-07-29T11:43:27;2.65;;;1.00;;
69030;SDS011;56083;48.774;8.942;2023-07-29T11:45:53;3.42;;;1.00;;
69030;SDS011;56083;48.774;8.942;2023-07-29T11:48:32;1.83;;;1.17;;
69030;SDS011;56083;48.774;8.942;2023-07-29T11:50:58;5.05;;;1.10;;
69030;SDS011;56083;48.774;8.942;2023-07-29T11:53:27;1.45;;;1.02;;
69030;SDS011;56083;48.774;8.942;2023-07-29T11:55:55;1.30;;;1.10;;
69030;SDS011;56083;48.774;8.942;2023-07-29T11:58:21;3.33;;;1.13;;
69030;SDS011;56083;48.774;8.942;2023-07-29T12:00:46;1.60;;;1.10;;
69030;SDS011;56083;48.774;8.942;2023-07-29T12:03:13;2.65;;;1.40;;
69030;SDS011;56083;48.774;8.942;2023-07-29T12:05:41;2.55;;;1.30;;
69030;SDS011;56083;48.774;8.942;2023-07-29T12:08:07;4.32;;;1.58;;
69030;SDS011;56083;48.774;8.942;2023-07-29T12:10:34;2.15;;;1.35;;
69030;SDS011;56083;48.774;8.942;2023-07-29T12:13:00;5.45;;;1.50;;
69030;SDS011;56083;48.774;8.942;2023-07-29T12:15:28;1.48;;;1.30;;
69030;SDS011;56083;48.774;8.942;2023-07-29T12:17:58;2.70;;;1.30;;
69030;SDS011;56083;48.774;8.942;2023-07-29T12:20:24;2.65;;;1.35;;
69030;SDS011;56083;48.774;8.942;2023-07-29T12:22:52;3.00;;;1.45;;
69030;SDS011;56083;48.774;8.942;2023-07-29T12:25:21;2.20;;;1.20;;
69030;SDS011;56083;48.774;8.942;2023-07-29T12:27:47;1.98;;;1.50;;
69030;SDS011;56083;48.774;8.942;2023-07-29T12:30:13;1.60;;;1.17;;
69030;SDS011;56083;48.774;8.942;2023-07-29T12:32:45;2.60;;;1.30;;
69030;SDS011;56083;48.774;8.942;2023-07-29T12:35:11;3.90;;;1.35;;
69030;SDS011;56083;48.774;8.942;2023-07-29T12:37:37;2.30;;;1.20;;
69030;SDS011;56083;48.774;8.942;2023-07-29T12:40:07;3.10;;;1.40;;
69030;SDS011;56083;48.774;8.942;2023-07-29T12:42:33;2.53;;;1.40;;
69030;SDS011;56083;48.774;8.942;2023-07-29T12:44:59;1.95;;;1.40;;
69030;SDS011;56083;48.774;8.942;2023-07-29T12:47:24;4.03;;;1.50;;
69030;SDS011;56083;48.774;8.942;2023-07-29T12:49:50;2.67;;;1.42;;
69030;SDS011;56083;48.774;8.942;2023-07-29T12:52:16;1.20;;;1.10;;
69030;SDS011;56083;48.774;8.942;2023-07-29T12:54:41;3.08;;;1.20;;
69030;SDS011;56083;48.774;8.942;2023-07-29T12:57:09;3.28;;;1.70;;
69030;SDS011;56083;48.774;8.942;2023-07-29T12:59:34;2.38;;;1.40;;
69030;SDS011;56083;48.774;8.942;2023-07-29T13:02:00;1.55;;;1.38;;
69030;SDS011;56083;48.774;8.942;2023-07-29T13:04:26;3.38;;;1.33;;
69030;SDS011;56083;48.774;8.942;2023-07-29T13:06:51;2.17;;;1.10;;
69030;SDS011;56083;48.774;8.942;2023-07-29T13:09:17;3.42;;;1.83;;
69030;SDS011;56083;48.774;8.942;2023-07-29T13:11:42;4.60;;;1.30;;
69030;SDS011;56083;48.774;8.942;2023-07-29T13:14:08;2.72;;;1.55;;
69030;SDS011;56083;48.774;8.942;2023-07-29T13:16:34;1.77;;;1.25;;
69030;SDS011;56083;48.774;8.942;2023-07-29T13:18:59;1.92;;;1.23;;
69030;SDS011;56083;48.774;8.942;2023-07-29T13:21:25;2.30;;;1.20;;
69030;SDS011;56083;48.774;8.942;2023-07-29T13:23:51;2.45;;;1.20;;
69030;SDS011;56083;48.774;8.942;2023-07-29T13:26:17;1.75;;;1.50;;
69030;SDS011;56083;48.774;8.942;2023-07-29T13:28:42;3.10;;;1.20;;
69030;SDS011;56083;48.774;8.942;2023-07-29T13:31:08;1.55;;;1.27;;
69030;SDS011;56083;48.774;8.942;2023-07-29T13:33:34;2.58;;;1.25;;
69030;SDS011;56083;48.774;8.942;2023-07-29T13:36:00;2.38;;;1.27;;
69030;SDS011;56083;48.774;8.942;2023-07-29T13:38:28;3.67;;;1.38;;
69030;SDS011;56083;48.774;8.942;2023-07-29T13:40:54;4.15;;;1.60;;
69030;SDS011;56083;48.774;8.942;2023-07-29T13:43:19;1.92;;;1.40;;
69030;SDS011;56083;48.774;8.942;2023-07-29T13:45:45;1.52;;;1.40;;
69030;SDS011;56083;48.774;8.942;2023-07-29T13:48:13;2.80;;;1.50;;
69030;SDS011;56083;48.774;8.942;2023-07-29T13:50:39;3.10;;;1.58;;
69030;SDS011;56083;48.774;8.942;2023-07-29T13:53:06;2.03;;;1.30;;
69030;SDS011;56083;48.774;8.942;2023-07-29T13:55:32;1.75;;;1.20;;
69030;SDS011;56083;48.774;8.942;2023-07-29T13:57:58;1.48;;;1.30;;
69030;SDS011;56083;48.774;8.942;2023-07-29T14:00:23;1.52;;;1.33;;
69030;SDS011;56083;48.774;8.942;2023-07-29T14:02:49;1.45;;;1.13;;
69030;SDS011;56083;48.774;8.942;2023-07-29T14:05:14;1.75;;;1.30;;
69030;SDS011;56083;48.774;8.942;2023-07-29T14:07:40;2.85;;;1.50;;
69030;SDS011;56083;48.774;8.942;2023-07-29T14:10:06;2.03;;;1.33;;
69030;SDS011;56083;48.774;8.942;2023-07-29T14:12:32;1.65;;;1.20;;
69030;SDS011;56083;48.774;8.942;2023-07-29T14:14:57;4.05;;;1.40;;
69030;SDS011;56083;48.774;8.942;2023-07-29T14:17:23;2.25;;;1.30;;
69030;SDS011;56083;48.774;8.942;2023-07-29T14:19:48;2.40;;;1.40;;
69030;SDS011;56083;48.774;8.942;2023-07-29T14:22:14;1.45;;;1.35;;
69030;SDS011;56083;48.774;8.942;2023-07-29T14:24:39;2.50;;;1.40;;
69030;SDS011;56083;48.774;8.942;2023-07-29T14:27:05;1.52;;;1.30;;
69030;SDS011;56083;48.774;8.942;2023-07-29T14:29:31;2.00;;;1.40;;
69030;SDS011;56083;48.774;8.942;2023-07-29T14:31:57;3.15;;;1.50;;
69030;SDS011;56083;48.774;8.942;2023-07-29T14:34:22;2.47;;;1.40;;
69030;SDS011;56083;48.774;8.942;2023-07-29T14:36:48;2.50;;;1.30;;
69030;SDS011;56083;48.774;8.942;2023-07-29T14:39:13;2.00;;;1.60;;
69030;SDS011;56083;48.774;8.942;2023-07-29T14:41:39;4.82;;;1.55;;
69030;SDS011;56083;48.774;8.942;2023-07-29T14:44:05;4.53;;;1.30;;
69030;SDS011;56083;48.774;8.942;2023-07-29T14:46:30;3.42;;;1.70;;
69030;SDS011;56083;48.774;8.942;2023-07-29T14:48:56;2.72;;;1.73;;
69030;SDS011;56083;48.774;8.942;2023-07-29T14:51:21;2.38;;;1.70;;
69030;SDS011;56083;48.774;8.942;2023-07-29T14:53:48;4.45;;;1.90;;
69030;SDS011;56083;48.774;8.942;2023-07-29T14:56:14;2.85;;;1.58;;